createdAt,value
2023-04-04T00:00:53.182Z,65.76
2023-04-04T00:03:21.977Z,65.41
2023-04-04T00:05:51.879Z,65.19
2023-04-04T00:08:21.352Z,66.22
2023-04-04T00:10:49.261Z,66.69
2023-04-04T00:13:17.875Z,67.13
2023-04-04T00:15:47.137Z,66.55
2023-04-04T00:18:14.928Z,66.71
2023-04-04T00:20:42.971Z,66.65
2023-04-04T00:23:11.772Z,66.96
2023-04-04T00:25:41.007Z,66.85
2023-04-04T00:28:09.612Z,67.77
2023-04-04T00:30:37.602Z,67.70
2023-04-04T00:33:06.680Z,68.04
2023-04-04T00:35:37.273Z,67.95
2023-04-04T00:38:05.872Z,68.90
2023-04-04T00:40:48.123Z,68.61
2023-04-04T00:43:17.203Z,68.25
2023-04-04T00:45:45.263Z,69.04
2023-04-04T00:48:13.558Z,69.02
2023-04-04T00:50:42.279Z,70.20
2023-04-04T00:53:11.105Z,70.65
2023-04-04T00:55:40.727Z,70.88
2023-04-04T00:58:09.210Z,71.47
2023-04-04T01:00:38.862Z,71.05
2023-04-04T01:03:08.059Z,71.34
2023-04-04T01:05:35.908Z,70.75
2023-04-04T01:08:03.779Z,69.79
2023-04-04T01:10:32.886Z,70.51
2023-04-04T01:13:02.775Z,70.80
2023-04-04T01:15:34.072Z,71.15
2023-04-04T01:18:05.078Z,71.73
2023-04-04T01:20:42.956Z,71.72
2023-04-04T01:23:12.952Z,71.42
2023-04-04T01:25:40.783Z,70.97
2023-04-04T01:28:09.421Z,70.54
2023-04-04T01:30:41.497Z,70.77
2023-04-04T01:33:30.631Z,70.25
2023-04-04T01:36:13.150Z,70.60
2023-04-04T01:39:09.120Z,69.59
2023-04-04T01:41:38.161Z,69.46
2023-04-04T01:44:07.340Z,69.56
2023-04-04T01:46:37.618Z,69.11
2023-04-04T01:49:05.377Z,69.09
2023-04-04T01:51:33.426Z,69.28
2023-04-04T01:54:01.300Z,69.40
2023-04-04T01:56:29.095Z,69.39
2023-04-04T01:58:58.369Z,68.74
2023-04-04T02:01:26.267Z,68.46
2023-04-04T02:03:54.125Z,68.48
2023-04-04T02:06:21.894Z,68.98
2023-04-04T02:08:50.635Z,68.22
2023-04-04T02:11:18.717Z,67.99
2023-04-04T02:13:48.332Z,67.71
2023-04-04T02:16:16.328Z,67.71
2023-04-04T02:18:45.111Z,68.15
2023-04-04T02:21:13.788Z,67.45
2023-04-04T02:23:41.779Z,67.53
2023-04-04T02:26:09.614Z,67.32
2023-04-04T02:28:37.632Z,67.55
2023-04-04T02:31:06.337Z,67.33
2023-04-04T02:33:35.090Z,66.96
2023-04-04T02:36:04.055Z,67.42
2023-04-04T02:38:32.716Z,66.30
2023-04-04T02:41:00.673Z,66.69
2023-04-04T02:43:28.460Z,66.25
2023-04-04T02:45:56.253Z,66.22
2023-04-04T02:48:25.993Z,66.29
2023-04-04T02:50:53.865Z,66.19
2023-04-04T02:53:21.725Z,66.07
2023-04-04T02:55:50.364Z,66.49
2023-04-04T02:58:18.993Z,66.21
2023-04-04T03:00:49.590Z,66.96
2023-04-04T03:03:18.333Z,66.20
2023-04-04T03:05:46.488Z,66.79
2023-04-04T03:08:14.265Z,66.68
2023-04-04T03:10:42.644Z,66.88
2023-04-04T03:13:10.494Z,66.13
2023-04-04T03:15:38.285Z,66.07
2023-04-04T03:18:07.217Z,66.20
2023-04-04T03:20:36.289Z,66.18
2023-04-04T03:23:04.926Z,66.34
2023-04-04T03:25:32.684Z,66.62
2023-04-04T03:28:10.554Z,65.90
2023-04-04T03:30:39.242Z,66.42
2023-04-04T03:33:10.371Z,66.66
2023-04-04T03:35:42.145Z,66.84
2023-04-04T03:38:11.410Z,66.42
2023-04-04T03:40:41.865Z,66.53
2023-04-04T03:43:10.648Z,66.66
2023-04-04T03:45:38.690Z,66.49
2023-04-04T03:48:06.955Z,66.57
2023-04-04T03:50:37.891Z,65.95
2023-04-04T03:53:06.661Z,65.88
2023-04-04T03:55:35.273Z,65.90
2023-04-04T03:58:04.299Z,65.53
2023-04-04T04:00:32.936Z,65.34
2023-04-04T04:03:01.556Z,66.04
2023-04-04T04:05:29.738Z,65.49
2023-04-04T04:07:57.602Z,65.79
2023-04-04T04:10:25.683Z,65.45
2023-04-04T04:12:54.250Z,65.09
2023-04-04T04:15:23.127Z,65.75
2023-04-04T04:17:51.948Z,65.95
2023-04-04T04:20:20.732Z,65.95
2023-04-04T04:22:51.027Z,65.88
2023-04-04T04:25:20.661Z,65.83
2023-04-04T04:27:48.446Z,66.50
2023-04-04T04:30:16.305Z,65.80
2023-04-04T04:32:44.916Z,65.21
2023-04-04T04:35:13.600Z,65.82
2023-04-04T04:37:41.398Z,65.70
2023-04-04T04:40:10.783Z,65.77
2023-04-04T04:42:48.195Z,65.85
2023-04-04T04:45:16.123Z,65.17
2023-04-04T04:47:43.979Z,64.74
2023-04-04T04:50:13.142Z,64.74
2023-04-04T04:52:41.812Z,64.14
2023-04-04T04:55:10.513Z,66.03
2023-04-04T04:57:41.097Z,63.55
2023-04-04T05:00:10.923Z,63.14
2023-04-04T05:02:38.877Z,64.56
2023-04-04T05:05:07.562Z,63.90
2023-04-04T05:07:35.412Z,64.19
2023-04-04T05:10:04.364Z,64.00
2023-04-04T05:12:34.002Z,63.45
2023-04-04T05:15:03.993Z,63.27
2023-04-04T05:17:32.136Z,64.11
2023-04-04T05:19:59.967Z,63.43
2023-04-04T05:22:28.648Z,63.47
2023-04-04T05:24:56.877Z,63.37
2023-04-04T05:27:28.228Z,62.55
2023-04-04T05:29:57.846Z,63.07
2023-04-04T05:32:27.603Z,62.65
2023-04-04T05:34:55.600Z,62.36
2023-04-04T05:37:24.232Z,61.75
2023-04-04T05:39:52.069Z,61.41
2023-04-04T05:42:22.107Z,61.88
2023-04-04T05:44:49.983Z,60.41
2023-04-04T05:47:17.763Z,58.82
2023-04-04T05:49:47.626Z,57.99
2023-04-04T05:52:17.313Z,58.15
2023-04-04T05:54:45.121Z,57.51
2023-04-04T05:57:12.917Z,54.51
2023-04-04T05:59:42.581Z,52.09
2023-04-04T06:02:12.505Z,50.51
2023-04-04T06:04:41.225Z,50.46
2023-04-04T06:07:09.084Z,50.04
2023-04-04T06:09:36.997Z,47.96
2023-04-04T06:12:04.937Z,50.09
2023-04-04T06:14:32.769Z,49.90
2023-04-04T06:17:00.912Z,49.68
2023-04-04T06:19:31.515Z,50.26
2023-04-04T06:22:00.177Z,52.09
2023-04-04T06:24:28.769Z,52.44
2023-04-04T06:26:56.870Z,52.50
2023-04-04T06:29:26.445Z,53.72
2023-04-04T06:31:58.592Z,51.85
2023-04-04T06:34:28.701Z,52.63
2023-04-04T06:36:57.483Z,48.84
2023-04-04T06:39:25.307Z,50.53
2023-04-04T06:41:53.124Z,53.49
2023-04-04T06:44:20.943Z,53.65
2023-04-04T06:46:48.898Z,53.87
2023-04-04T06:49:20.253Z,52.66
2023-04-04T06:51:50.936Z,49.35
2023-04-04T06:54:19.681Z,50.40
2023-04-04T06:56:48.397Z,50.45
2023-04-04T06:59:16.183Z,52.54
2023-04-04T07:01:47.502Z,55.06
2023-04-04T07:04:20.477Z,50.35
2023-04-04T07:06:48.305Z,51.66
2023-04-04T07:09:28.003Z,52.89
2023-04-04T07:11:57.083Z,53.51
2023-04-04T07:14:26.029Z,47.81
2023-04-04T07:16:55.508Z,48.74
2023-04-04T07:19:24.755Z,47.94
2023-04-04T07:21:52.598Z,52.12
2023-04-04T07:24:21.839Z,53.15
2023-04-04T07:26:51.721Z,52.06
2023-04-04T07:29:22.169Z,51.22
2023-04-04T07:31:50.027Z,51.30
2023-04-04T07:34:18.396Z,51.02
2023-04-04T07:36:48.371Z,52.09
2023-04-04T07:39:16.238Z,50.54
2023-04-04T07:41:44.136Z,49.18
2023-04-04T07:44:12.115Z,49.12
2023-04-04T07:46:40.879Z,48.96
2023-04-04T07:49:10.701Z,46.66
2023-04-04T07:51:42.020Z,50.04
2023-04-04T07:54:11.621Z,50.70
2023-04-04T07:56:40.275Z,50.06
2023-04-04T07:59:08.193Z,49.12
2023-04-04T08:01:39.579Z,48.81
2023-04-04T08:04:07.438Z,49.05
2023-04-04T08:06:37.089Z,50.31
2023-04-04T08:09:05.279Z,48.86
2023-04-04T08:11:34.935Z,47.60
2023-04-04T08:14:06.288Z,46.98
2023-04-04T08:16:34.861Z,44.83
2023-04-04T08:19:04.335Z,46.89
2023-04-04T08:21:34.394Z,46.27
2023-04-04T08:24:04.217Z,45.93
2023-04-04T08:26:32.251Z,47.70
2023-04-04T08:29:00.112Z,45.90
2023-04-04T08:31:28.470Z,45.91
2023-04-04T08:33:57.183Z,48.02
2023-04-04T08:36:29.204Z,47.95
2023-04-04T08:38:56.999Z,46.75
2023-04-04T08:41:26.914Z,47.37
2023-04-04T08:43:56.910Z,46.89
2023-04-04T08:46:26.748Z,46.83
2023-04-04T08:48:57.622Z,45.27
2023-04-04T08:51:30.168Z,46.29
2023-04-04T08:53:59.024Z,45.57
2023-04-04T08:56:27.119Z,44.96
2023-04-04T08:58:55.075Z,46.04
2023-04-04T09:01:23.860Z,44.93
2023-04-04T09:03:54.088Z,44.58
2023-04-04T09:06:22.272Z,45.11
2023-04-04T09:08:54.105Z,45.22
2023-04-04T09:11:23.440Z,46.09
2023-04-04T09:13:53.300Z,44.80
2023-04-04T09:16:21.270Z,45.32
2023-04-04T09:18:49.020Z,45.13
2023-04-04T09:21:16.837Z,46.36
2023-04-04T09:23:46.008Z,45.93
2023-04-04T09:26:13.845Z,45.07
2023-04-04T09:28:43.368Z,44.81
2023-04-04T09:31:12.744Z,46.18
2023-04-04T09:33:41.515Z,44.73
2023-04-04T09:36:14.757Z,44.97
2023-04-04T09:38:44.424Z,44.99
2023-04-04T09:41:16.977Z,45.54
2023-04-04T09:43:47.000Z,45.04
2023-04-04T09:46:16.195Z,45.04
2023-04-04T09:48:53.430Z,45.45
2023-04-04T09:51:21.601Z,43.86
2023-04-04T09:53:52.460Z,44.98
2023-04-04T09:56:20.417Z,43.85
2023-04-04T09:59:02.610Z,42.94
2023-04-04T10:01:31.693Z,44.22
2023-04-04T10:04:05.927Z,43.58
2023-04-04T10:06:38.713Z,44.08
2023-04-04T10:09:09.268Z,44.35
2023-04-04T10:11:39.120Z,44.19
2023-04-04T10:14:07.045Z,44.23
2023-04-04T10:16:39.862Z,42.55
2023-04-04T10:19:08.932Z,43.04
2023-04-04T10:21:37.672Z,42.70
2023-04-04T10:24:10.292Z,42.90
2023-04-04T10:26:39.184Z,42.28
2023-04-04T10:29:08.056Z,42.01
2023-04-04T10:31:43.384Z,40.99
2023-04-04T10:34:29.103Z,41.67
2023-04-04T10:37:15.722Z,40.44
2023-04-04T10:40:10.664Z,41.50
2023-04-04T10:42:46.951Z,41.75
2023-04-04T10:45:21.546Z,40.89
2023-04-04T10:47:51.931Z,41.29
2023-04-04T10:50:21.592Z,41.57
2023-04-04T10:52:52.596Z,40.10
2023-04-04T10:55:21.937Z,40.04
2023-04-04T10:57:53.422Z,40.61
2023-04-04T11:00:24.565Z,40.80
2023-04-04T11:03:01.430Z,41.06
2023-04-04T11:05:33.453Z,40.18
2023-04-04T11:08:08.289Z,40.59
2023-04-04T11:10:42.471Z,40.67
2023-04-04T11:13:23.800Z,39.42
2023-04-04T11:16:10.088Z,39.83
2023-04-04T11:18:42.365Z,39.30
2023-04-04T11:21:15.316Z,37.98
2023-04-04T11:23:49.535Z,39.34
2023-04-04T11:26:26.545Z,39.48
2023-04-04T11:29:08.090Z,39.93
2023-04-04T11:31:45.637Z,39.48
2023-04-04T11:34:31.444Z,40.45
2023-04-04T11:37:15.616Z,40.60
2023-04-04T11:39:59.283Z,39.88
2023-04-04T11:42:40.606Z,39.21
2023-04-04T11:45:10.429Z,40.02
2023-04-04T11:47:42.513Z,40.16
2023-04-04T11:50:13.824Z,39.33
2023-04-04T11:52:43.380Z,39.43
2023-04-04T11:55:18.350Z,39.72
2023-04-04T11:57:48.331Z,39.63
2023-04-04T12:00:37.973Z,40.36
2023-04-04T12:03:16.510Z,40.68
2023-04-04T12:05:45.422Z,39.83
2023-04-04T12:08:14.554Z,39.46
2023-04-04T12:10:43.687Z,39.00
2023-04-04T12:13:14.169Z,39.45
2023-04-04T12:15:44.268Z,38.73
2023-04-04T12:18:22.771Z,38.41
2023-04-04T12:20:53.056Z,38.76
2023-04-04T12:23:20.950Z,38.62
2023-04-04T12:25:54.895Z,37.82
2023-04-04T12:28:26.389Z,38.66
2023-04-04T12:30:56.344Z,37.41
2023-04-04T12:33:24.177Z,38.33
2023-04-04T12:35:56.222Z,37.55
2023-04-04T12:38:25.174Z,37.43
2023-04-04T12:40:54.098Z,37.70
2023-04-04T12:43:22.869Z,38.90
2023-04-04T12:45:52.391Z,38.60
2023-04-04T12:48:21.536Z,37.13
2023-04-04T12:50:56.006Z,37.99
2023-04-04T12:53:29.976Z,39.32
2023-04-04T12:56:06.723Z,38.42
2023-04-04T13:01:25.263Z,36.56
2023-04-04T13:03:54.036Z,37.56
2023-04-04T13:06:22.708Z,38.00
2023-04-04T13:08:55.372Z,37.53
2023-04-04T13:11:23.949Z,37.19
2023-04-04T13:14:05.975Z,37.17
2023-04-04T13:16:37.353Z,37.86
2023-04-04T13:19:06.721Z,37.36
2023-04-04T13:21:36.024Z,37.90
2023-04-04T13:24:05.145Z,37.73
2023-04-04T13:26:33.968Z,38.04
2023-04-04T13:29:02.630Z,38.15
2023-04-04T13:31:30.605Z,37.62
2023-04-04T13:33:59.238Z,38.54
2023-04-04T13:36:28.570Z,37.42
2023-04-04T13:38:56.377Z,37.16
2023-04-04T13:41:24.141Z,38.29
2023-04-04T13:43:53.336Z,38.03
2023-04-04T13:46:21.231Z,37.68
2023-04-04T13:48:49.110Z,37.27
2023-04-04T13:51:16.884Z,37.55
2023-04-04T13:53:45.517Z,37.68
2023-04-04T13:56:18.511Z,37.14
2023-04-04T13:58:48.300Z,37.79
2023-04-04T14:01:18.843Z,36.63
2023-04-04T14:03:48.414Z,37.53
2023-04-04T14:06:17.685Z,37.72
2023-04-04T14:08:46.884Z,36.82
2023-04-04T14:11:16.144Z,37.71
2023-04-04T14:13:44.712Z,37.28
2023-04-04T14:16:14.548Z,38.07
2023-04-04T14:18:44.039Z,35.57
2023-04-04T14:21:12.059Z,35.68
2023-04-04T14:23:40.787Z,36.46
2023-04-04T14:26:11.756Z,36.04
2023-04-04T14:28:39.808Z,35.29
2023-04-04T14:31:08.583Z,36.04
2023-04-04T14:33:39.844Z,36.93
2023-04-04T14:36:08.216Z,36.09
2023-04-04T14:38:36.147Z,35.91
2023-04-04T14:41:05.344Z,37.39
2023-04-04T14:43:33.189Z,36.60
2023-04-04T14:46:01.937Z,36.31
2023-04-04T14:48:31.530Z,35.93
2023-04-04T14:51:01.007Z,36.85
2023-04-04T14:53:28.824Z,34.90
2023-04-04T14:55:56.625Z,33.78
2023-04-04T14:58:24.541Z,34.26
2023-04-04T15:00:53.025Z,33.57
2023-04-04T15:03:22.033Z,33.31
2023-04-04T15:05:50.800Z,33.68
2023-04-04T15:08:22.071Z,34.22
2023-04-04T15:10:49.988Z,36.06
2023-04-04T15:13:18.758Z,35.64
2023-04-04T15:15:48.357Z,34.15
2023-04-04T15:18:18.159Z,35.83
2023-04-04T15:20:47.067Z,34.86
2023-04-04T15:23:14.976Z,34.66
2023-04-04T15:25:43.562Z,34.69
2023-04-04T15:28:11.458Z,36.59
2023-04-04T15:30:40.302Z,36.49
2023-04-04T15:33:09.326Z,36.51
2023-04-04T15:35:37.242Z,35.74
2023-04-04T15:38:07.000Z,35.65
2023-04-04T15:40:34.757Z,36.09
2023-04-04T15:43:05.934Z,35.92
2023-04-04T15:45:34.557Z,36.96
2023-04-04T15:48:03.159Z,36.04
2023-04-04T15:50:32.894Z,35.77
2023-04-04T15:53:00.663Z,35.48
2023-04-04T15:55:28.539Z,35.84
2023-04-04T15:57:56.613Z,36.94
2023-04-04T16:00:29.924Z,37.80
2023-04-04T16:03:00.004Z,36.63
2023-04-04T16:05:28.971Z,40.22
2023-04-04T16:07:57.377Z,42.59
2023-04-04T16:10:28.995Z,43.91
2023-04-04T16:12:57.666Z,45.09
2023-04-04T16:15:26.467Z,44.15
2023-04-04T16:17:58.869Z,38.46
2023-04-04T16:20:28.549Z,43.57
2023-04-04T16:22:57.365Z,45.22
2023-04-04T16:25:26.480Z,45.94
2023-04-04T16:27:55.204Z,45.45
2023-04-04T16:30:24.031Z,44.72
2023-04-04T16:32:52.023Z,46.42
2023-04-04T16:35:20.116Z,46.14
2023-04-04T16:37:48.833Z,46.25
2023-04-04T16:40:16.871Z,46.69
2023-04-04T16:42:44.787Z,47.64
2023-04-04T16:45:13.710Z,47.60
2023-04-04T16:47:41.552Z,47.77
2023-04-04T16:50:10.160Z,47.44
2023-04-04T16:52:38.917Z,47.33
2023-04-04T16:55:09.520Z,47.28
2023-04-04T16:57:38.272Z,47.52
2023-04-04T17:00:10.203Z,48.66
2023-04-04T17:02:47.072Z,47.53
2023-04-04T17:05:16.786Z,47.79
2023-04-04T17:07:45.811Z,47.95
2023-04-04T17:10:14.612Z,47.82
2023-04-04T17:12:44.328Z,48.20
2023-04-04T17:15:12.445Z,48.27
2023-04-04T17:17:42.902Z,49.27
2023-04-04T17:20:18.288Z,48.62
2023-04-04T17:22:49.845Z,49.05
2023-04-04T17:25:20.890Z,49.52
2023-04-04T17:27:49.860Z,49.12
2023-04-04T17:30:18.733Z,51.66
2023-04-04T17:32:49.054Z,51.12
2023-04-04T17:35:17.918Z,50.36
2023-04-04T17:37:45.997Z,51.65
2023-04-04T17:40:15.479Z,50.07
2023-04-04T17:42:43.344Z,50.94
2023-04-04T17:45:12.645Z,51.14
2023-04-04T17:47:41.313Z,51.59
2023-04-04T17:50:11.141Z,52.66
2023-04-04T17:52:39.764Z,50.77
2023-04-04T17:55:10.069Z,51.36
2023-04-04T17:57:38.871Z,51.72
2023-04-04T18:00:13.154Z,51.74
2023-04-04T18:02:41.211Z,52.27
2023-04-04T18:05:10.553Z,52.94
2023-04-04T18:07:38.405Z,52.56
2023-04-04T18:10:08.458Z,53.15
2023-04-04T18:12:36.643Z,53.52
2023-04-04T18:15:06.578Z,53.43
2023-04-04T18:17:35.223Z,55.10
2023-04-04T18:20:07.642Z,56.02
2023-04-04T18:22:38.254Z,55.29
2023-04-04T18:25:11.924Z,55.21
2023-04-04T18:27:39.717Z,54.09
2023-04-04T18:30:11.696Z,55.40
2023-04-04T18:32:42.520Z,53.95
2023-04-04T18:35:12.903Z,53.95
2023-04-04T18:37:43.762Z,53.65
2023-04-04T18:40:12.489Z,53.69
2023-04-04T18:42:42.066Z,53.89
2023-04-04T18:45:12.209Z,53.73
2023-04-04T18:47:41.370Z,52.98
2023-04-04T18:50:12.239Z,53.08
2023-04-04T18:52:40.159Z,53.25
2023-04-04T18:55:08.776Z,52.08
2023-04-04T18:57:37.829Z,52.39
2023-04-04T19:00:08.412Z,51.90
2023-04-04T19:02:37.625Z,52.06
2023-04-04T19:05:07.577Z,52.57
2023-04-04T19:07:37.108Z,52.08
2023-04-04T19:10:07.906Z,53.55
2023-04-04T19:12:37.464Z,52.83
2023-04-04T19:15:08.137Z,52.58
2023-04-04T19:17:36.071Z,52.31
2023-04-04T19:20:04.568Z,53.66
2023-04-04T19:22:33.402Z,53.19
2023-04-04T19:25:03.010Z,52.86
2023-04-04T19:27:31.057Z,51.57
2023-04-04T19:29:59.669Z,51.96
2023-04-04T19:32:29.769Z,52.19
2023-04-04T19:34:58.581Z,52.68
2023-04-04T19:37:27.270Z,52.52
2023-04-04T19:39:56.304Z,52.44
2023-04-04T19:42:29.977Z,52.73
2023-04-04T19:44:57.837Z,52.54
2023-04-04T19:47:27.442Z,53.38
2023-04-04T19:49:58.261Z,53.78
2023-04-04T19:52:27.049Z,53.52
2023-04-04T19:54:54.865Z,54.51
2023-04-04T19:57:23.760Z,56.81
2023-04-04T20:00:17.951Z,54.80
2023-04-04T20:02:51.617Z,55.13
2023-04-04T20:05:35.145Z,54.77
2023-04-04T20:08:06.011Z,54.85
2023-04-04T20:10:41.573Z,55.58
2023-04-04T20:13:11.617Z,56.88
2023-04-04T20:15:47.774Z,55.15
2023-04-04T20:18:26.642Z,55.73
2023-04-04T20:21:12.507Z,56.51
2023-04-04T20:23:55.432Z,56.13
2023-04-04T20:26:36.449Z,56.02
2023-04-04T20:29:11.271Z,55.59
2023-04-04T20:31:48.919Z,55.64
2023-04-04T20:34:42.562Z,55.90
2023-04-04T20:37:23.155Z,56.55
2023-04-04T20:40:14.908Z,56.87
2023-04-04T20:42:43.710Z,56.50
2023-04-04T20:45:26.734Z,56.68
2023-04-04T20:48:00.974Z,56.11
2023-04-04T20:50:29.692Z,56.66
2023-04-04T20:53:03.240Z,56.68
2023-04-04T20:55:35.231Z,56.80
2023-04-04T20:58:28.960Z,57.62
2023-04-04T21:01:00.594Z,58.16
2023-04-04T21:03:36.723Z,58.52
2023-04-04T21:06:15.863Z,58.12
2023-04-04T21:08:49.275Z,59.38
2023-04-04T21:11:33.616Z,58.43
2023-04-04T21:14:01.525Z,58.61
2023-04-04T21:16:30.515Z,59.13
2023-04-04T21:19:01.848Z,59.43
2023-04-04T21:21:31.153Z,60.56
2023-04-04T21:24:01.169Z,60.93
2023-04-04T21:26:39.248Z,61.40
2023-04-04T21:29:23.772Z,61.46
2023-04-04T21:31:55.737Z,60.93
2023-04-04T21:34:27.450Z,61.32
2023-04-04T21:37:02.000Z,61.34
2023-04-04T21:39:31.824Z,61.36
2023-04-04T21:42:08.472Z,61.34
2023-04-04T21:44:38.664Z,61.01
2023-04-04T21:47:06.801Z,60.97
2023-04-04T21:49:34.664Z,60.44
2023-04-04T21:52:03.449Z,59.85
2023-04-04T21:54:31.376Z,60.05
2023-04-04T21:56:59.181Z,59.48
2023-04-04T21:59:28.086Z,59.02
2023-04-04T22:01:56.216Z,59.66
2023-04-04T22:04:25.082Z,60.13
2023-04-04T22:06:53.760Z,60.92
2023-04-04T22:09:22.839Z,60.79
2023-04-04T22:11:50.666Z,60.19
2023-04-04T22:14:19.365Z,60.47
2023-04-04T22:16:47.365Z,60.62
2023-04-04T22:19:15.330Z,61.49
2023-04-04T22:21:48.252Z,61.48
2023-04-04T22:24:18.722Z,62.43
2023-04-04T22:26:47.672Z,61.95
2023-04-04T22:29:15.696Z,62.41
2023-04-04T22:31:43.639Z,62.04
2023-04-04T22:34:14.706Z,62.18
2023-04-04T22:36:44.192Z,61.75
2023-04-04T22:39:16.507Z,62.05
2023-04-04T22:41:45.422Z,61.71
2023-04-04T22:44:14.244Z,62.30
2023-04-04T22:46:42.309Z,61.07
2023-04-04T22:49:11.285Z,61.31
2023-04-04T22:51:46.198Z,61.70
2023-04-04T22:54:16.806Z,61.60
2023-04-04T22:56:46.110Z,61.30
2023-04-04T22:59:14.338Z,61.70
2023-04-04T23:01:42.475Z,61.72
2023-04-04T23:04:10.584Z,61.81
2023-04-04T23:06:39.277Z,61.60
2023-04-04T23:09:08.578Z,61.33
2023-04-04T23:11:39.250Z,61.20
2023-04-04T23:14:15.248Z,61.60
2023-04-04T23:16:43.705Z,61.83
2023-04-04T23:19:13.296Z,62.07
2023-04-04T23:21:42.315Z,61.46
2023-04-04T23:24:10.261Z,61.57
2023-04-04T23:26:38.974Z,60.74
2023-04-04T23:29:07.744Z,60.81
2023-04-04T23:31:36.680Z,61.31
2023-04-04T23:34:05.669Z,61.24
2023-04-04T23:36:34.421Z,60.94
2023-04-04T23:39:03.665Z,61.48
2023-04-04T23:41:32.536Z,61.29
2023-04-04T23:44:01.303Z,61.04
2023-04-04T23:46:30.662Z,60.78
2023-04-04T23:48:59.263Z,60.66
2023-04-04T23:51:30.606Z,61.07
2023-04-04T23:54:00.358Z,61.29
2023-04-04T23:56:29.006Z,61.21
2023-04-04T23:58:56.926Z,61.04
